ワルシャワ・フレデリック・ショパン空港の過去48時間の天気

ワルシャワ・フレデリック・ショパン空港 (Warszawa-Okecie)

現在時刻: 9/23 01:24 CEST (9/22 23:24 UTC) 以下の時間は現地時間です。

過去48時間のMETAR気象情報
時間 風向 風速(m/s) 視程 気温(℃) 湿度(%) 気圧(hPa) 天気現象
23 01:00 西 2 10km以上 9 93 1020
23 00:30 西 2 10km以上 8 93 1021
23 00:00 西 1 10km以上 8 93 1021
22 23:30 西 2 10km以上 7 93 1021
22 23:00 西 2 10km以上 6 100 1021
22 22:30 西 2 10km以上 7 93 1021
22 22:00 西南西 2 10km以上 6 93 1021
22 21:30 西 2 10km以上 8 87 1021
22 21:00 西北西 2 10km以上 8 87 1021
22 20:30 西北西 3 10km以上 9 81 1021
22 20:00 西北西 3 10km以上 9 76 1021
22 19:30 北西 4 10km以上 10 76 1021
22 19:00 北西 5 10km以上 11 67 1021
22 18:30 北西 5 10km以上 11 67 1021
22 18:00 北西 6 10km以上 13 54 1021
22 17:30 5 10km以上 13 54 1021
22 17:00 北北西 6 10km以上 13 54 1021
22 16:30 6 10km以上 14 47 1021
22 16:00 5 10km以上 14 51 1021
22 15:30 北北西 6 10km以上 14 47 1021
22 15:00 6 10km以上 13 51 1021
22 14:30 北北西 6 10km以上 14 51 1021
22 14:00 北北西 6 10km以上 13 51 1021
22 13:30 北北西 7 10km以上 14 55 1021
22 13:00 北北西 6 10km以上 13 54 1021
22 12:30 北西 6 10km以上 13 58 1021
22 12:00 北北西 7 10km以上 12 58 1022
22 11:30 北西 6 10km以上 12 62 1022
22 11:00 北西 7 10km以上 12 62 1022
22 10:30 北北西 6 10km以上 12 71 1022
22 10:00 北北西 6 10km以上 11 71 1022
22 09:30 北北西 5 10km以上 11 76 1022
22 09:00 北西 5 10km以上 10 87 1022
22 08:30 北西 4 10km以上 9 93 1022
22 08:00 北西 3 10km以上 9 93 1021
22 07:30 北西 3 10km以上 9 93 1021
22 07:00 北西 3 10km以上 8 93 1021
22 06:30 北西 3 10km以上 8 93 1021
22 06:00 北西 3 10km以上 8 93 1021
22 05:30 北西 3 10km以上 8 100 1021
22 05:00 北西 3 10km以上 8 100 1021
22 04:30 北西 3 10km以上 9 93 1021
22 04:00 北西 4 10km以上 9 93 1021
22 03:30 北西 4 10km以上 9 93 1021
22 03:00 西北西 3 10km以上 9 93 1021
22 02:30 西北西 3 10km以上 9 93 1021
22 02:00 西北西 3 10km以上 9 93 1021
22 01:00 西北西 3 10km以上 9 93 1022 弱い雨
22 00:30 西北西 3 10km以上 9 93 1022 弱い雨
22 00:00 西 3 10km以上 9 93 1022 弱い雨
21 23:30 西 3 10km以上 9 93 1022 弱い雨
21 23:00 西 4 10km以上 9 93 1022 弱い雨
21 22:30 西 4 10km以上 10 87 1022 弱い雨
21 22:00 西北西 5 10km以上 10 87 1022 弱い雨
21 21:30 西北西 5 10km以上 11 76 1022
21 21:00 西北西 5 10km以上 11 76 1022
21 20:30 西北西 5 10km以上 11 76 1022
21 20:00 西北西 4 10km以上 11 76 1022
21 19:30 西 4 10km以上 11 76 1022
21 19:00 西 3 10km以上 11 71 1022
21 18:30 西 3 10km以上 11 71 1022
21 18:00 西 3 10km以上 11 71 1023
21 17:30 西 4 10km以上 12 67 1023
21 17:00 西北西 5 10km以上 12 67 1023
21 16:30 西北西 4 10km以上 12 71 1023
21 16:00 西北西 4 10km以上 12 67 1023
21 15:30 北西 5 10km以上 13 62 1023
21 15:00 北西 5 10km以上 13 62 1023
21 14:30 西北西 7 10km以上 12 67 1023
21 14:00 北西 6 10km以上 13 67 1023
21 13:30 西 4 10km以上 12 71 1023
21 13:00 西北西 4 10km以上 12 71 1023
21 12:30 西北西 5 10km以上 11 76 1023
21 12:00 西北西 6 10km以上 11 71 1023
21 11:30 北西 5 10km以上 11 67 1023
21 11:00 北西 4 10km以上 10 76 1023
21 10:30 北北西 6 10km以上 9 76 1023
21 10:00 北北西 6 10km以上 9 76 1023
21 09:30 北北西 6 10km以上 9 76 1023
21 09:00 北西 5 10km以上 8 87 1023
21 08:30 北西 5 10km以上 7 93 1022
21 08:00 北西 5 10km以上 6 93 1022
21 07:30 西北西 4 10km以上 5 100 1022
21 07:00 西北西 5 10km以上 5 93 1022
21 06:30 西北西 4 10km以上 4 100 1022
21 06:00 西北西 4 10km以上 4 100 1021
21 05:30 西北西 4 10km以上 4 100 1021
21 05:00 西北西 4 10km以上 5 93 1021
21 04:30 西北西 5 10km以上 5 93 1021
21 04:00 西 5 10km以上 6 93 1021
21 03:30 西北西 5 10km以上 5 100 1021
21 03:00 西北西 5 10km以上 6 93 1021
21 02:30 西北西 4 10km以上 5 93 1021
21 02:00 西北西 4 10km以上 5 93 1021
21 01:30 西北西 4 10km以上 5 93 1021
EPWA 222300Z 27004KT 9999 FEW040 09/08 Q1020 NOSIG
EPWA 222230Z 26004KT CAVOK 08/07 Q1021 NOSIG
EPWA 222200Z 26002KT CAVOK 08/07 Q1021 NOSIG
EPWA 222130Z 26003KT CAVOK 07/06 Q1021 NOSIG
EPWA 222100Z 27003KT CAVOK 06/06 Q1021 NOSIG
EPWA 222030Z 28003KT CAVOK 07/06 Q1021 NOSIG
EPWA 222000Z 25003KT CAVOK 06/05 Q1021 NOSIG
EPWA 221930Z 26004KT CAVOK 08/06 Q1021 NOSIG
EPWA 221900Z 29004KT CAVOK 08/06 Q1021 NOSIG
EPWA 221830Z 30006KT CAVOK 09/06 Q1021 NOSIG
EPWA 221800Z 30006KT CAVOK 09/05 Q1021 NOSIG
EPWA 221730Z 31007KT CAVOK 10/06 Q1021 NOSIG
EPWA 221700Z 32010KT CAVOK 11/05 Q1021 NOSIG
EPWA 221630Z 32010KT 9999 FEW043 11/05 Q1021 NOSIG
EPWA 221600Z 32012KT 9999 FEW042 13/04 Q1021 NOSIG
EPWA 221530Z 35010KT 9999 FEW044 13/04 Q1021 NOSIG
EPWA 221500Z 34012KT 9999 FEW043 13/04 Q1021 NOSIG
EPWA 221430Z 35012KT 320V020 9999 FEW048 14/03 Q1021 NOSIG
EPWA 221400Z 35009KT CAVOK 14/04 Q1021 NOSIG
EPWA 221330Z 34012KT 9999 SCT049 14/03 Q1021 NOSIG
EPWA 221300Z 35011KT 9999 SCT048 13/03 Q1021 NOSIG
EPWA 221230Z 33012KT 9999 SCT044 14/04 Q1021 NOSIG
EPWA 221200Z 34012KT 310V010 9999 SCT044 13/03 Q1021 NOSIG
EPWA 221130Z 33013KT 9999 SCT040 14/05 Q1021 NOSIG
EPWA 221100Z 33012KT 300V360 9999 SCT041 13/04 Q1021 NOSIG
EPWA 221030Z 31012KT 9999 SCT040 13/05 Q1021 NOSIG
EPWA 221000Z 33014KT 300V360 9999 SCT036 12/04 Q1022 NOSIG
EPWA 220930Z 32012KT 9999 SCT032 12/05 Q1022 NOSIG
EPWA 220900Z 32013KT 9999 BKN029 12/05 Q1022 NOSIG
EPWA 220830Z 33011KT 300V360 9999 SCT023 12/07 Q1022 NOSIG
EPWA 220800Z 33011KT 9999 FEW020 11/06 Q1022 NOSIG
EPWA 220730Z 33010KT 9999 FEW015 11/07 Q1022 NOSIG
EPWA 220700Z 31009KT CAVOK 10/08 Q1022 NOSIG
EPWA 220630Z 31008KT 9999 BKN048 09/08 Q1022 NOSIG
EPWA 220600Z 31006KT 9999 BKN047 09/08 Q1021 NOSIG
EPWA 220530Z 32005KT 9999 BKN048 09/08 Q1021 NOSIG
EPWA 220500Z 31005KT CAVOK 08/07 Q1021 NOSIG
EPWA 220430Z 32005KT CAVOK 08/07 Q1021 NOSIG
EPWA 220400Z 32005KT CAVOK 08/07 Q1021 NOSIG
EPWA 220330Z 31005KT 9999 FEW007 BKN036 08/08 Q1021 NOSIG
EPWA 220300Z 32005KT 9999 FEW007 BKN036 08/08 Q1021 NOSIG
EPWA 220230Z 32006KT 9999 BKN007 BKN036 09/08 Q1021 NOSIG
EPWA 220200Z 32007KT 9999 BKN007 BKN026 09/08 Q1021 NOSIG
EPWA 220130Z 31007KT 9999 BKN007 BKN026 09/08 Q1021 NOSIG
EPWA 220100Z 30006KT 9999 BKN007 09/08 Q1021 NOSIG
EPWA 220030Z 29006KT 9999 SCT007 BKN040 09/08 Q1021 TEMPO BKN007
EPWA 220000Z 29006KT 9999 FEW008 BKN042 09/08 Q1021 NOSIG
EPWA 212300Z 29006KT 9999 -RA FEW008 SCT043 09/08 Q1022 NOSIG
EPWA 212230Z 29006KT 9999 -RA SCT007 BKN042 09/08 Q1022 TEMPO BKN007
EPWA 212200Z 28006KT 9999 -RA FEW008 BKN046 09/08 Q1022 NOSIG
EPWA 212130Z 28006KT 9999 -RA BKN041 09/08 Q1022 NOSIG
EPWA 212100Z 28007KT 9999 -RA BKN043 09/08 Q1022 NOSIG
EPWA 212030Z 28008KT 9999 -RA BKN048 10/08 Q1022 NOSIG
EPWA 212000Z 29009KT 9999 -RA BKN048 10/08 Q1022 NOSIG
EPWA 211930Z 30010KT 9999 BKN049 11/07 Q1022 NOSIG
EPWA 211900Z 29009KT 9999 BKN043 11/07 Q1022 NOSIG
EPWA 211830Z 29009KT 9999 SCT040 11/07 Q1022 NOSIG
EPWA 211800Z 29008KT 9999 FEW043 11/07 Q1022 NOSIG
EPWA 211730Z 27007KT 9999 SCT043 11/07 Q1022 NOSIG
EPWA 211700Z 27006KT CAVOK 11/06 Q1022 NOSIG
EPWA 211630Z 27006KT CAVOK 11/06 Q1022 NOSIG
EPWA 211600Z 27006KT CAVOK 11/06 Q1023 NOSIG
EPWA 211530Z 28008KT CAVOK 12/06 Q1023 NOSIG
EPWA 211500Z 29010KT 9999 FEW036 BKN046 12/06 Q1023 NOSIG
EPWA 211430Z 30007KT 9999 FEW036 BKN046 12/07 Q1023 NOSIG
EPWA 211400Z 30008KT 9999 FEW036 BKN046 12/06 Q1023 NOSIG
EPWA 211330Z 31009KT 9999 FEW036 BKN046 13/06 Q1023 NOSIG
EPWA 211300Z 32009KT 9999 BKN043 13/06 Q1023 NOSIG
EPWA 211230Z 30013KT 9999 BKN043 12/06 Q1023 NOSIG
EPWA 211200Z 31011KT 270V340 9999 BKN033 13/07 Q1023 NOSIG
EPWA 211130Z 28008KT 260V320 9999 SCT030 12/07 Q1023 NOSIG
EPWA 211100Z 30008KT 9999 SCT026 12/07 Q1023 NOSIG
EPWA 211030Z 29010KT 9999 BKN043 11/07 Q1023 NOSIG
EPWA 211000Z 29011KT 9999 BKN043 11/06 Q1023 NOSIG
EPWA 210930Z 32009KT 9999 FEW023 BKN046 11/05 Q1023 NOSIG
EPWA 210900Z 31008KT 9999 FEW023 BKN036 10/06 Q1023 NOSIG
EPWA 210830Z 34011KT 9999 FEW020 BKN036 09/05 Q1023 NOSIG
EPWA 210800Z 33011KT 9999 FEW020 BKN036 09/05 Q1023 NOSIG
EPWA 210730Z 34011KT 9999 FEW012 09/05 Q1023 NOSIG
EPWA 210700Z 31010KT CAVOK 08/06 Q1023 NOSIG
EPWA 210630Z 31009KT CAVOK 07/06 Q1022 NOSIG
EPWA 210600Z 31009KT 9999 FEW005 06/05 Q1022 NOSIG
EPWA 210530Z 29008KT 9999 FEW005 05/05 Q1022 NOSIG
EPWA 210500Z 29009KT 9999 FEW005 05/04 Q1022 NOSIG
EPWA 210430Z 29008KT 9999 FEW005 04/04 Q1022 NOSIG
EPWA 210400Z 29008KT 9999 FEW016 04/04 Q1021 NOSIG
EPWA 210330Z 29008KT 9999 FEW025 04/04 Q1021 NOSIG
EPWA 210300Z 30008KT CAVOK 05/04 Q1021 NOSIG
EPWA 210230Z 29009KT 9999 FEW034 05/04 Q1021 NOSIG
EPWA 210200Z 28009KT 9999 FEW034 06/05 Q1021 NOSIG
EPWA 210130Z 29009KT 9999 FEW034 05/05 Q1021 NOSIG
EPWA 210100Z 29009KT 9999 FEW029 06/05 Q1021 NOSIG
EPWA 210030Z 30007KT 9999 FEW034 05/04 Q1021 NOSIG
EPWA 210000Z 29008KT 9999 FEW035 05/04 Q1021 NOSIG
EPWA 202330Z 29008KT CAVOK 05/04 Q1021 NOSIG